sensor_id;sensor_type;location;lat;lon;timestamp;P1;durP1;ratioP1;P2;durP2;ratioP2
44704;SDS011;30431;48.520;9.046;2023-07-20T00:02:26;4.90;;;3.05;;
44704;SDS011;30431;48.520;9.046;2023-07-20T00:04:53;5.22;;;2.88;;
44704;SDS011;30431;48.520;9.046;2023-07-20T00:07:20;7.47;;;2.90;;
44704;SDS011;30431;48.520;9.046;2023-07-20T00:09:51;6.32;;;2.83;;
44704;SDS011;30431;48.520;9.046;2023-07-20T00:12:21;10.52;;;3.00;;
44704;SDS011;30431;48.520;9.046;2023-07-20T00:14:48;8.68;;;2.85;;
44704;SDS011;30431;48.520;9.046;2023-07-20T00:19:42;4.72;;;2.83;;
44704;SDS011;30431;48.520;9.046;2023-07-20T00:22:09;4.18;;;2.63;;
44704;SDS011;30431;48.520;9.046;2023-07-20T00:24:39;5.47;;;2.70;;
44704;SDS011;30431;48.520;9.046;2023-07-20T00:27:06;6.72;;;2.88;;
44704;SDS011;30431;48.520;9.046;2023-07-20T00:29:38;6.30;;;2.90;;
44704;SDS011;30431;48.520;9.046;2023-07-20T00:32:07;7.13;;;2.80;;
44704;SDS011;30431;48.520;9.046;2023-07-20T00:34:34;6.25;;;2.95;;
44704;SDS011;30431;48.520;9.046;2023-07-20T00:37:03;5.35;;;2.95;;
44704;SDS011;30431;48.520;9.046;2023-07-20T00:41:58;4.50;;;2.72;;
44704;SDS011;30431;48.520;9.046;2023-07-20T00:44:25;6.15;;;2.97;;
44704;SDS011;30431;48.520;9.046;2023-07-20T00:46:54;7.85;;;3.10;;
44704;SDS011;30431;48.520;9.046;2023-07-20T00:49:25;8.02;;;3.10;;
44704;SDS011;30431;48.520;9.046;2023-07-20T00:51:52;4.18;;;2.90;;
44704;SDS011;30431;48.520;9.046;2023-07-20T00:54:21;5.78;;;3.03;;
44704;SDS011;30431;48.520;9.046;2023-07-20T00:56:50;4.93;;;2.90;;
44704;SDS011;30431;48.520;9.046;2023-07-20T00:59:19;8.00;;;3.22;;
44704;SDS011;30431;48.520;9.046;2023-07-20T01:01:49;4.97;;;2.85;;
44704;SDS011;30431;48.520;9.046;2023-07-20T01:04:16;6.03;;;2.95;;
44704;SDS011;30431;48.520;9.046;2023-07-20T01:06:58;5.75;;;3.10;;
44704;SDS011;30431;48.520;9.046;2023-07-20T01:09:41;6.55;;;3.45;;
44704;SDS011;30431;48.520;9.046;2023-07-20T01:12:35;4.75;;;2.95;;
44704;SDS011;30431;48.520;9.046;2023-07-20T01:15:13;9.38;;;3.30;;
44704;SDS011;30431;48.520;9.046;2023-07-20T01:17:40;4.90;;;2.90;;
44704;SDS011;30431;48.520;9.046;2023-07-20T01:20:13;5.55;;;3.03;;
44704;SDS011;30431;48.520;9.046;2023-07-20T01:22:57;3.88;;;2.90;;
44704;SDS011;30431;48.520;9.046;2023-07-20T01:31:30;6.55;;;3.20;;
44704;SDS011;30431;48.520;9.046;2023-07-20T01:34:02;5.10;;;3.17;;
44704;SDS011;30431;48.520;9.046;2023-07-20T01:36:35;8.52;;;3.10;;
44704;SDS011;30431;48.520;9.046;2023-07-20T01:39:06;8.23;;;3.47;;
44704;SDS011;30431;48.520;9.046;2023-07-20T01:41:34;7.70;;;3.55;;
44704;SDS011;30431;48.520;9.046;2023-07-20T01:46:30;4.35;;;2.97;;
44704;SDS011;30431;48.520;9.046;2023-07-20T01:51:30;7.32;;;3.08;;
44704;SDS011;30431;48.520;9.046;2023-07-20T01:54:00;6.10;;;3.30;;
44704;SDS011;30431;48.520;9.046;2023-07-20T01:56:27;7.75;;;3.33;;
44704;SDS011;30431;48.520;9.046;2023-07-20T01:58:54;6.15;;;3.55;;
44704;SDS011;30431;48.520;9.046;2023-07-20T02:01:21;7.13;;;3.13;;
44704;SDS011;30431;48.520;9.046;2023-07-20T02:03:49;6.80;;;3.28;;
44704;SDS011;30431;48.520;9.046;2023-07-20T02:08:47;5.00;;;3.13;;
44704;SDS011;30431;48.520;9.046;2023-07-20T02:11:17;8.55;;;3.33;;
44704;SDS011;30431;48.520;9.046;2023-07-20T02:13:44;5.07;;;3.42;;
44704;SDS011;30431;48.520;9.046;2023-07-20T02:16:11;7.15;;;3.60;;
44704;SDS011;30431;48.520;9.046;2023-07-20T02:18:38;6.43;;;3.10;;
44704;SDS011;30431;48.520;9.046;2023-07-20T02:21:07;6.25;;;3.80;;
44704;SDS011;30431;48.520;9.046;2023-07-20T02:23:34;5.03;;;3.25;;
44704;SDS011;30431;48.520;9.046;2023-07-20T02:26:03;5.25;;;3.47;;
44704;SDS011;30431;48.520;9.046;2023-07-20T02:28:30;5.85;;;3.20;;
44704;SDS011;30431;48.520;9.046;2023-07-20T02:30:57;4.60;;;3.00;;
44704;SDS011;30431;48.520;9.046;2023-07-20T02:33:24;6.20;;;3.15;;
44704;SDS011;30431;48.520;9.046;2023-07-20T02:35:51;13.30;;;3.10;;
44704;SDS011;30431;48.520;9.046;2023-07-20T02:38:18;4.30;;;3.05;;
44704;SDS011;30431;48.520;9.046;2023-07-20T02:40:47;7.85;;;3.47;;
44704;SDS011;30431;48.520;9.046;2023-07-20T02:43:14;5.13;;;3.20;;
44704;SDS011;30431;48.520;9.046;2023-07-20T02:45:44;4.95;;;3.13;;
44704;SDS011;30431;48.520;9.046;2023-07-20T02:48:13;8.10;;;3.63;;
44704;SDS011;30431;48.520;9.046;2023-07-20T02:50:40;5.30;;;3.40;;
44704;SDS011;30431;48.520;9.046;2023-07-20T02:55:34;6.95;;;3.35;;
44704;SDS011;30431;48.520;9.046;2023-07-20T02:58:04;6.70;;;3.50;;
44704;SDS011;30431;48.520;9.046;2023-07-20T03:00:33;6.22;;;3.28;;
44704;SDS011;30431;48.520;9.046;2023-07-20T03:03:00;6.45;;;3.42;;
44704;SDS011;30431;48.520;9.046;2023-07-20T03:05:29;6.13;;;3.35;;
44704;SDS011;30431;48.520;9.046;2023-07-20T03:07:56;7.03;;;3.80;;
44704;SDS011;30431;48.520;9.046;2023-07-20T03:10:31;5.70;;;3.65;;
44704;SDS011;30431;48.520;9.046;2023-07-20T03:12:59;6.60;;;3.50;;
44704;SDS011;30431;48.520;9.046;2023-07-20T03:15:26;5.28;;;3.72;;
44704;SDS011;30431;48.520;9.046;2023-07-20T03:17:56;7.10;;;3.40;;
44704;SDS011;30431;48.520;9.046;2023-07-20T03:20:27;5.30;;;3.25;;
44704;SDS011;30431;48.520;9.046;2023-07-20T03:27:48;8.10;;;3.15;;
44704;SDS011;30431;48.520;9.046;2023-07-20T03:30:15;5.78;;;3.60;;
44704;SDS011;30431;48.520;9.046;2023-07-20T03:32:43;4.97;;;3.03;;
44704;SDS011;30431;48.520;9.046;2023-07-20T03:35:12;5.82;;;3.53;;
44704;SDS011;30431;48.520;9.046;2023-07-20T03:37:39;6.35;;;3.53;;
44704;SDS011;30431;48.520;9.046;2023-07-20T03:40:07;5.88;;;3.08;;
44704;SDS011;30431;48.520;9.046;2023-07-20T03:42:34;5.88;;;3.50;;
44704;SDS011;30431;48.520;9.046;2023-07-20T03:45:01;6.53;;;3.58;;
44704;SDS011;30431;48.520;9.046;2023-07-20T03:47:29;6.60;;;3.45;;
44704;SDS011;30431;48.520;9.046;2023-07-20T03:49:56;5.78;;;3.58;;
44704;SDS011;30431;48.520;9.046;2023-07-20T03:54:53;5.85;;;3.63;;
44704;SDS011;30431;48.520;9.046;2023-07-20T03:59:49;7.72;;;3.58;;
44704;SDS011;30431;48.520;9.046;2023-07-20T04:02:16;8.93;;;3.65;;
44704;SDS011;30431;48.520;9.046;2023-07-20T04:04:46;6.90;;;3.92;;
44704;SDS011;30431;48.520;9.046;2023-07-20T04:07:12;5.30;;;3.53;;
44704;SDS011;30431;48.520;9.046;2023-07-20T04:09:44;7.22;;;3.70;;
44704;SDS011;30431;48.520;9.046;2023-07-20T04:12:12;6.00;;;3.50;;
44704;SDS011;30431;48.520;9.046;2023-07-20T04:14:39;7.57;;;3.40;;
44704;SDS011;30431;48.520;9.046;2023-07-20T04:17:06;5.40;;;3.25;;
44704;SDS011;30431;48.520;9.046;2023-07-20T04:19:33;7.75;;;3.80;;
44704;SDS011;30431;48.520;9.046;2023-07-20T04:22:00;8.05;;;3.80;;
44704;SDS011;30431;48.520;9.046;2023-07-20T04:24:28;7.40;;;3.38;;
44704;SDS011;30431;48.520;9.046;2023-07-20T04:26:55;4.63;;;3.15;;
44704;SDS011;30431;48.520;9.046;2023-07-20T04:29:24;8.27;;;3.40;;
44704;SDS011;30431;48.520;9.046;2023-07-20T04:31:51;8.40;;;3.55;;
44704;SDS011;30431;48.520;9.046;2023-07-20T04:34:20;5.70;;;3.45;;
44704;SDS011;30431;48.520;9.046;2023-07-20T04:36:49;8.07;;;3.45;;
44704;SDS011;30431;48.520;9.046;2023-07-20T04:42:03;6.00;;;3.50;;
44704;SDS011;30431;48.520;9.046;2023-07-20T04:44:31;9.07;;;3.42;;
44704;SDS011;30431;48.520;9.046;2023-07-20T04:46:58;9.40;;;3.70;;
44704;SDS011;30431;48.520;9.046;2023-07-20T04:49:25;5.82;;;3.42;;
44704;SDS011;30431;48.520;9.046;2023-07-20T04:51:52;6.75;;;3.28;;
44704;SDS011;30431;48.520;9.046;2023-07-20T04:56:47;6.97;;;3.28;;
44704;SDS011;30431;48.520;9.046;2023-07-20T04:59:21;6.55;;;3.20;;
44704;SDS011;30431;48.520;9.046;2023-07-20T05:01:53;7.00;;;3.58;;
44704;SDS011;30431;48.520;9.046;2023-07-20T05:04:22;4.38;;;3.20;;
44704;SDS011;30431;48.520;9.046;2023-07-20T05:06:52;6.47;;;3.20;;
44704;SDS011;30431;48.520;9.046;2023-07-20T05:09:22;8.65;;;3.58;;
44704;SDS011;30431;48.520;9.046;2023-07-20T05:14:17;9.18;;;4.13;;
44704;SDS011;30431;48.520;9.046;2023-07-20T05:16:45;10.18;;;3.20;;
44704;SDS011;30431;48.520;9.046;2023-07-20T05:19:14;5.70;;;3.22;;
44704;SDS011;30431;48.520;9.046;2023-07-20T05:24:44;5.00;;;3.40;;
44704;SDS011;30431;48.520;9.046;2023-07-20T05:27:12;8.13;;;3.10;;
44704;SDS011;30431;48.520;9.046;2023-07-20T05:29:45;5.07;;;3.28;;
44704;SDS011;30431;48.520;9.046;2023-07-20T05:32:15;5.90;;;3.53;;
44704;SDS011;30431;48.520;9.046;2023-07-20T05:34:42;8.75;;;3.78;;
44704;SDS011;30431;48.520;9.046;2023-07-20T05:37:09;7.47;;;3.67;;
44704;SDS011;30431;48.520;9.046;2023-07-20T05:39:40;5.88;;;3.25;;
44704;SDS011;30431;48.520;9.046;2023-07-20T05:42:11;6.35;;;3.50;;
44704;SDS011;30431;48.520;9.046;2023-07-20T05:44:40;7.88;;;3.35;;
44704;SDS011;30431;48.520;9.046;2023-07-20T05:47:10;4.93;;;2.88;;
44704;SDS011;30431;48.520;9.046;2023-07-20T05:49:39;5.50;;;3.65;;
44704;SDS011;30431;48.520;9.046;2023-07-20T05:52:06;7.40;;;3.50;;
44704;SDS011;30431;48.520;9.046;2023-07-20T05:54:36;7.05;;;3.22;;
44704;SDS011;30431;48.520;9.046;2023-07-20T05:57:05;11.55;;;3.80;;
44704;SDS011;30431;48.520;9.046;2023-07-20T05:59:35;8.07;;;5.00;;
44704;SDS011;30431;48.520;9.046;2023-07-20T06:02:04;6.03;;;3.85;;
44704;SDS011;30431;48.520;9.046;2023-07-20T06:04:32;7.18;;;3.75;;
44704;SDS011;30431;48.520;9.046;2023-07-20T06:06:59;9.35;;;3.47;;
44704;SDS011;30431;48.520;9.046;2023-07-20T06:09:26;7.47;;;3.28;;
44704;SDS011;30431;48.520;9.046;2023-07-20T06:11:56;7.03;;;3.72;;
44704;SDS011;30431;48.520;9.046;2023-07-20T06:14:25;6.63;;;3.35;;
44704;SDS011;30431;48.520;9.046;2023-07-20T06:16:52;7.18;;;3.22;;
44704;SDS011;30431;48.520;9.046;2023-07-20T06:19:19;5.97;;;3.28;;
44704;SDS011;30431;48.520;9.046;2023-07-20T06:21:49;7.13;;;2.92;;
44704;SDS011;30431;48.520;9.046;2023-07-20T06:24:16;5.72;;;2.97;;
44704;SDS011;30431;48.520;9.046;2023-07-20T06:26:43;7.78;;;3.20;;
44704;SDS011;30431;48.520;9.046;2023-07-20T06:31:40;5.03;;;3.50;;
44704;SDS011;30431;48.520;9.046;2023-07-20T06:34:07;7.22;;;3.53;;
44704;SDS011;30431;48.520;9.046;2023-07-20T06:36:34;7.90;;;3.20;;
44704;SDS011;30431;48.520;9.046;2023-07-20T06:39:01;4.75;;;2.97;;
44704;SDS011;30431;48.520;9.046;2023-07-20T06:41:34;5.88;;;3.10;;
44704;SDS011;30431;48.520;9.046;2023-07-20T06:44:04;5.65;;;3.03;;
44704;SDS011;30431;48.520;9.046;2023-07-20T06:46:32;8.40;;;3.50;;
44704;SDS011;30431;48.520;9.046;2023-07-20T06:49:01;9.07;;;3.75;;
44704;SDS011;30431;48.520;9.046;2023-07-20T06:51:31;6.07;;;3.50;;
44704;SDS011;30431;48.520;9.046;2023-07-20T06:54:14;6.10;;;3.45;;
44704;SDS011;30431;48.520;9.046;2023-07-20T06:56:41;6.30;;;2.90;;
44704;SDS011;30431;48.520;9.046;2023-07-20T06:59:11;6.15;;;3.20;;
44704;SDS011;30431;48.520;9.046;2023-07-20T07:04:08;7.03;;;3.40;;
44704;SDS011;30431;48.520;9.046;2023-07-20T07:06:38;7.60;;;3.15;;
44704;SDS011;30431;48.520;9.046;2023-07-20T07:09:07;7.30;;;3.15;;
44704;SDS011;30431;48.520;9.046;2023-07-20T07:11:36;6.45;;;3.10;;
44704;SDS011;30431;48.520;9.046;2023-07-20T07:14:06;4.68;;;3.08;;
44704;SDS011;30431;48.520;9.046;2023-07-20T07:16:34;4.32;;;2.67;;
44704;SDS011;30431;48.520;9.046;2023-07-20T07:19:04;7.53;;;3.28;;
44704;SDS011;30431;48.520;9.046;2023-07-20T07:21:36;5.32;;;2.78;;
44704;SDS011;30431;48.520;9.046;2023-07-20T07:24:05;4.10;;;2.90;;
44704;SDS011;30431;48.520;9.046;2023-07-20T07:26:36;7.35;;;3.08;;
44704;SDS011;30431;48.520;9.046;2023-07-20T07:29:03;5.20;;;2.83;;
44704;SDS011;30431;48.520;9.046;2023-07-20T07:31:33;8.80;;;2.95;;
44704;SDS011;30431;48.520;9.046;2023-07-20T07:34:04;3.97;;;2.58;;
44704;SDS011;30431;48.520;9.046;2023-07-20T07:36:32;4.40;;;2.78;;
44704;SDS011;30431;48.520;9.046;2023-07-20T07:39:00;6.28;;;2.78;;
44704;SDS011;30431;48.520;9.046;2023-07-20T07:41:50;6.18;;;2.90;;
44704;SDS011;30431;48.520;9.046;2023-07-20T07:44:18;5.88;;;3.00;;
44704;SDS011;30431;48.520;9.046;2023-07-20T07:49:11;7.25;;;3.05;;
44704;SDS011;30431;48.520;9.046;2023-07-20T07:51:38;6.35;;;3.00;;
44704;SDS011;30431;48.520;9.046;2023-07-20T07:54:05;5.68;;;2.92;;
44704;SDS011;30431;48.520;9.046;2023-07-20T07:59:03;7.25;;;3.00;;
44704;SDS011;30431;48.520;9.046;2023-07-20T08:01:31;4.97;;;2.85;;
44704;SDS011;30431;48.520;9.046;2023-07-20T08:03:58;7.43;;;2.80;;
44704;SDS011;30431;48.520;9.046;2023-07-20T08:06:29;9.88;;;3.15;;
44704;SDS011;30431;48.520;9.046;2023-07-20T08:09:00;9.52;;;4.32;;
44704;SDS011;30431;48.520;9.046;2023-07-20T08:13:54;8.20;;;3.30;;
44704;SDS011;30431;48.520;9.046;2023-07-20T08:18:51;6.82;;;3.25;;
44704;SDS011;30431;48.520;9.046;2023-07-20T08:21:20;5.88;;;2.70;;
44704;SDS011;30431;48.520;9.046;2023-07-20T08:23:52;5.50;;;2.95;;
44704;SDS011;30431;48.520;9.046;2023-07-20T08:26:19;5.05;;;2.85;;
44704;SDS011;30431;48.520;9.046;2023-07-20T08:28:49;8.00;;;2.90;;
44704;SDS011;30431;48.520;9.046;2023-07-20T08:31:19;6.88;;;2.97;;
44704;SDS011;30431;48.520;9.046;2023-07-20T08:33:46;8.85;;;3.38;;
44704;SDS011;30431;48.520;9.046;2023-07-20T08:38:41;4.47;;;2.75;;
44704;SDS011;30431;48.520;9.046;2023-07-20T08:41:09;6.22;;;2.85;;
44704;SDS011;30431;48.520;9.046;2023-07-20T08:43:41;7.05;;;2.92;;
44704;SDS011;30431;48.520;9.046;2023-07-20T08:46:10;5.13;;;2.92;;
44704;SDS011;30431;48.520;9.046;2023-07-20T08:48:41;8.85;;;2.97;;
44704;SDS011;30431;48.520;9.046;2023-07-20T08:51:12;6.47;;;3.00;;
44704;SDS011;30431;48.520;9.046;2023-07-20T08:53:39;7.85;;;3.03;;
44704;SDS011;30431;48.520;9.046;2023-07-20T08:56:08;4.20;;;2.80;;
44704;SDS011;30431;48.520;9.046;2023-07-20T08:58:38;9.65;;;3.42;;
44704;SDS011;30431;48.520;9.046;2023-07-20T09:01:06;5.07;;;2.80;;
44704;SDS011;30431;48.520;9.046;2023-07-20T09:03:34;6.85;;;3.15;;
44704;SDS011;30431;48.520;9.046;2023-07-20T09:06:06;9.27;;;3.20;;
44704;SDS011;30431;48.520;9.046;2023-07-20T09:11:03;5.25;;;2.80;;
44704;SDS011;30431;48.520;9.046;2023-07-20T09:13:32;5.43;;;2.78;;
44704;SDS011;30431;48.520;9.046;2023-07-20T09:16:06;4.55;;;2.90;;
44704;SDS011;30431;48.520;9.046;2023-07-20T09:18:35;4.53;;;2.50;;
44704;SDS011;30431;48.520;9.046;2023-07-20T09:21:05;6.97;;;2.50;;
44704;SDS011;30431;48.520;9.046;2023-07-20T09:23:33;3.65;;;2.40;;
44704;SDS011;30431;48.520;9.046;2023-07-20T09:26:10;6.05;;;2.63;;
44704;SDS011;30431;48.520;9.046;2023-07-20T09:28:50;4.38;;;2.33;;
44704;SDS011;30431;48.520;9.046;2023-07-20T09:31:20;4.35;;;2.47;;
44704;SDS011;30431;48.520;9.046;2023-07-20T09:33:48;4.35;;;2.40;;
44704;SDS011;30431;48.520;9.046;2023-07-20T09:36:21;5.72;;;2.53;;
44704;SDS011;30431;48.520;9.046;2023-07-20T09:39:10;8.75;;;2.80;;
44704;SDS011;30431;48.520;9.046;2023-07-20T09:44:15;9.10;;;2.42;;
44704;SDS011;30431;48.520;9.046;2023-07-20T09:46:49;7.53;;;2.40;;
44704;SDS011;30431;48.520;9.046;2023-07-20T09:49:22;3.67;;;2.20;;
44704;SDS011;30431;48.520;9.046;2023-07-20T09:51:54;5.70;;;3.10;;
44704;SDS011;30431;48.520;9.046;2023-07-20T09:54:23;2.88;;;2.10;;
44704;SDS011;30431;48.520;9.046;2023-07-20T09:56:54;7.25;;;2.65;;
44704;SDS011;30431;48.520;9.046;2023-07-20T09:59:22;7.25;;;2.83;;
44704;SDS011;30431;48.520;9.046;2023-07-20T10:04:19;4.40;;;2.45;;
44704;SDS011;30431;48.520;9.046;2023-07-20T10:06:47;3.90;;;2.15;;
44704;SDS011;30431;48.520;9.046;2023-07-20T10:09:21;6.70;;;2.60;;
44704;SDS011;30431;48.520;9.046;2023-07-20T10:11:52;6.28;;;2.45;;
44704;SDS011;30431;48.520;9.046;2023-07-20T10:14:38;3.10;;;2.00;;
44704;SDS011;30431;48.520;9.046;2023-07-20T10:17:12;4.93;;;2.30;;
44704;SDS011;30431;48.520;9.046;2023-07-20T10:22:26;4.55;;;2.10;;
44704;SDS011;30431;48.520;9.046;2023-07-20T10:25:07;4.53;;;2.10;;
44704;SDS011;30431;48.520;9.046;2023-07-20T10:27:35;3.35;;;2.35;;
44704;SDS011;30431;48.520;9.046;2023-07-20T10:30:05;5.70;;;2.00;;
44704;SDS011;30431;48.520;9.046;2023-07-20T10:32:35;6.15;;;2.20;;
44704;SDS011;30431;48.520;9.046;2023-07-20T10:35:13;3.95;;;1.90;;
44704;SDS011;30431;48.520;9.046;2023-07-20T10:37:48;3.50;;;2.10;;
44704;SDS011;30431;48.520;9.046;2023-07-20T10:40:37;4.55;;;2.00;;
44704;SDS011;30431;48.520;9.046;2023-07-20T10:43:09;5.45;;;2.17;;
44704;SDS011;30431;48.520;9.046;2023-07-20T10:45:40;6.93;;;2.22;;
44704;SDS011;30431;48.520;9.046;2023-07-20T10:53:35;3.40;;;2.20;;
44704;SDS011;30431;48.520;9.046;2023-07-20T10:56:05;4.75;;;2.78;;
44704;SDS011;30431;48.520;9.046;2023-07-20T10:58:39;4.22;;;2.20;;
44704;SDS011;30431;48.520;9.046;2023-07-20T11:01:09;6.53;;;2.50;;
44704;SDS011;30431;48.520;9.046;2023-07-20T11:03:42;3.63;;;2.10;;
44704;SDS011;30431;48.520;9.046;2023-07-20T11:06:35;3.53;;;2.17;;
44704;SDS011;30431;48.520;9.046;2023-07-20T11:11:38;2.67;;;2.05;;
44704;SDS011;30431;48.520;9.046;2023-07-20T11:14:06;4.18;;;2.10;;
44704;SDS011;30431;48.520;9.046;2023-07-20T11:16:43;3.90;;;2.17;;
44704;SDS011;30431;48.520;9.046;2023-07-20T11:19:32;4.25;;;2.20;;
44704;SDS011;30431;48.520;9.046;2023-07-20T11:22:04;3.80;;;2.15;;
44704;SDS011;30431;48.520;9.046;2023-07-20T11:24:39;3.70;;;2.00;;
44704;SDS011;30431;48.520;9.046;2023-07-20T11:27:07;3.65;;;2.10;;
44704;SDS011;30431;48.520;9.046;2023-07-20T11:29:37;5.20;;;2.22;;
44704;SDS011;30431;48.520;9.046;2023-07-20T11:32:06;4.40;;;1.92;;
44704;SDS011;30431;48.520;9.046;2023-07-20T11:34:34;3.90;;;2.13;;
44704;SDS011;30431;48.520;9.046;2023-07-20T11:37:05;3.33;;;2.30;;
44704;SDS011;30431;48.520;9.046;2023-07-20T11:39:38;2.95;;;2.08;;
44704;SDS011;30431;48.520;9.046;2023-07-20T11:42:06;4.80;;;2.20;;
44704;SDS011;30431;48.520;9.046;2023-07-20T11:44:33;4.95;;;2.17;;
44704;SDS011;30431;48.520;9.046;2023-07-20T11:47:06;2.33;;;1.90;;
44704;SDS011;30431;48.520;9.046;2023-07-20T11:49:42;3.78;;;2.08;;
44704;SDS011;30431;48.520;9.046;2023-07-20T11:52:10;4.47;;;2.10;;
44704;SDS011;30431;48.520;9.046;2023-07-20T11:54:39;3.45;;;2.00;;
44704;SDS011;30431;48.520;9.046;2023-07-20T11:57:20;3.42;;;2.10;;
44704;SDS011;30431;48.520;9.046;2023-07-20T11:59:57;3.67;;;2.00;;
44704;SDS011;30431;48.520;9.046;2023-07-20T12:02:26;3.25;;;2.10;;
44704;SDS011;30431;48.520;9.046;2023-07-20T12:04:54;4.28;;;2.10;;
44704;SDS011;30431;48.520;9.046;2023-07-20T12:07:25;5.63;;;2.30;;
44704;SDS011;30431;48.520;9.046;2023-07-20T12:10:04;3.17;;;2.17;;
44704;SDS011;30431;48.520;9.046;2023-07-20T12:12:39;5.35;;;2.40;;
44704;SDS011;30431;48.520;9.046;2023-07-20T12:15:21;3.17;;;2.20;;
44704;SDS011;30431;48.520;9.046;2023-07-20T12:17:50;4.28;;;2.30;;
44704;SDS011;30431;48.520;9.046;2023-07-20T12:20:24;3.95;;;2.00;;
44704;SDS011;30431;48.520;9.046;2023-07-20T12:22:56;3.25;;;2.20;;
44704;SDS011;30431;48.520;9.046;2023-07-20T12:25:32;3.58;;;2.30;;
44704;SDS011;30431;48.520;9.046;2023-07-20T12:28:17;6.05;;;2.40;;
44704;SDS011;30431;48.520;9.046;2023-07-20T12:30:46;3.25;;;2.30;;
44704;SDS011;30431;48.520;9.046;2023-07-20T12:33:22;4.03;;;2.40;;
44704;SDS011;30431;48.520;9.046;2023-07-20T12:38:17;2.38;;;1.90;;
44704;SDS011;30431;48.520;9.046;2023-07-20T12:40:47;4.13;;;2.15;;
44704;SDS011;30431;48.520;9.046;2023-07-20T12:43:14;5.90;;;2.20;;
44704;SDS011;30431;48.520;9.046;2023-07-20T12:48:09;4.43;;;2.10;;
44704;SDS011;30431;48.520;9.046;2023-07-20T12:50:38;3.45;;;2.20;;
44704;SDS011;30431;48.520;9.046;2023-07-20T12:55:38;5.25;;;2.65;;
44704;SDS011;30431;48.520;9.046;2023-07-20T12:58:08;3.30;;;2.03;;
44704;SDS011;30431;48.520;9.046;2023-07-20T13:00:35;3.08;;;2.00;;
44704;SDS011;30431;48.520;9.046;2023-07-20T13:03:02;3.67;;;2.00;;
44704;SDS011;30431;48.520;9.046;2023-07-20T13:05:35;2.55;;;2.13;;
44704;SDS011;30431;48.520;9.046;2023-07-20T13:08:05;3.03;;;2.13;;
44704;SDS011;30431;48.520;9.046;2023-07-20T13:10:36;3.97;;;2.58;;
44704;SDS011;30431;48.520;9.046;2023-07-20T13:13:05;3.58;;;2.40;;
44704;SDS011;30431;48.520;9.046;2023-07-20T13:15:44;5.65;;;2.10;;
44704;SDS011;30431;48.520;9.046;2023-07-20T13:18:11;3.22;;;2.30;;
44704;SDS011;30431;48.520;9.046;2023-07-20T13:20:43;2.92;;;2.17;;
44704;SDS011;30431;48.520;9.046;2023-07-20T13:25:37;4.32;;;2.85;;
44704;SDS011;30431;48.520;9.046;2023-07-20T13:28:04;3.75;;;2.30;;
44704;SDS011;30431;48.520;9.046;2023-07-20T13:30:32;7.18;;;2.70;;
44704;SDS011;30431;48.520;9.046;2023-07-20T13:32:59;2.83;;;2.03;;
44704;SDS011;30431;48.520;9.046;2023-07-20T13:35:32;3.03;;;2.00;;
44704;SDS011;30431;48.520;9.046;2023-07-20T13:38:01;4.53;;;2.00;;
44704;SDS011;30431;48.520;9.046;2023-07-20T13:43:00;3.45;;;2.00;;
44704;SDS011;30431;48.520;9.046;2023-07-20T13:45:28;4.03;;;2.10;;
44704;SDS011;30431;48.520;9.046;2023-07-20T13:47:59;3.08;;;1.90;;
44704;SDS011;30431;48.520;9.046;2023-07-20T13:50:28;4.40;;;2.28;;
44704;SDS011;30431;48.520;9.046;2023-07-20T13:53:10;3.28;;;2.60;;
44704;SDS011;30431;48.520;9.046;2023-07-20T13:55:45;2.97;;;2.10;;
44704;SDS011;30431;48.520;9.046;2023-07-20T13:58:15;3.42;;;2.05;;
44704;SDS011;30431;48.520;9.046;2023-07-20T14:00:44;7.45;;;2.40;;
44704;SDS011;30431;48.520;9.046;2023-07-20T14:03:14;3.38;;;2.28;;
44704;SDS011;30431;48.520;9.046;2023-07-20T14:05:45;3.22;;;2.30;;
44704;SDS011;30431;48.520;9.046;2023-07-20T14:08:20;3.45;;;2.13;;
44704;SDS011;30431;48.520;9.046;2023-07-20T14:10:50;3.70;;;2.03;;
44704;SDS011;30431;48.520;9.046;2023-07-20T14:13:20;3.85;;;2.03;;
44704;SDS011;30431;48.520;9.046;2023-07-20T14:15:58;5.55;;;2.33;;
44704;SDS011;30431;48.520;9.046;2023-07-20T14:18:28;3.83;;;1.90;;
44704;SDS011;30431;48.520;9.046;2023-07-20T14:20:58;3.47;;;2.20;;
44704;SDS011;30431;48.520;9.046;2023-07-20T14:23:26;4.43;;;2.00;;
44704;SDS011;30431;48.520;9.046;2023-07-20T14:25:53;5.13;;;2.20;;
44704;SDS011;30431;48.520;9.046;2023-07-20T14:28:22;3.45;;;2.10;;
44704;SDS011;30431;48.520;9.046;2023-07-20T14:30:49;4.85;;;2.00;;
44704;SDS011;30431;48.520;9.046;2023-07-20T14:33:17;4.25;;;2.10;;
44704;SDS011;30431;48.520;9.046;2023-07-20T14:35:44;3.50;;;2.20;;
44704;SDS011;30431;48.520;9.046;2023-07-20T14:38:11;2.83;;;2.10;;
44704;SDS011;30431;48.520;9.046;2023-07-20T14:40:38;5.53;;;2.38;;
44704;SDS011;30431;48.520;9.046;2023-07-20T14:43:05;5.53;;;2.30;;
44704;SDS011;30431;48.520;9.046;2023-07-20T14:45:32;3.97;;;2.10;;
44704;SDS011;30431;48.520;9.046;2023-07-20T14:47:59;3.03;;;2.05;;
44704;SDS011;30431;48.520;9.046;2023-07-20T14:50:29;4.22;;;2.15;;
44704;SDS011;30431;48.520;9.046;2023-07-20T14:52:58;4.00;;;2.05;;
44704;SDS011;30431;48.520;9.046;2023-07-20T14:55:34;3.83;;;2.20;;
44704;SDS011;30431;48.520;9.046;2023-07-20T14:58:03;3.60;;;2.22;;
44704;SDS011;30431;48.520;9.046;2023-07-20T15:00:30;2.83;;;2.00;;
44704;SDS011;30431;48.520;9.046;2023-07-20T15:03:00;5.63;;;2.40;;
44704;SDS011;30431;48.520;9.046;2023-07-20T15:07:56;5.28;;;2.25;;
44704;SDS011;30431;48.520;9.046;2023-07-20T15:12:52;2.85;;;2.03;;
44704;SDS011;30431;48.520;9.046;2023-07-20T15:15:24;4.13;;;2.00;;
44704;SDS011;30431;48.520;9.046;2023-07-20T15:17:51;2.38;;;1.90;;
44704;SDS011;30431;48.520;9.046;2023-07-20T15:20:19;4.28;;;2.13;;
44704;SDS011;30431;48.520;9.046;2023-07-20T15:22:48;4.75;;;2.30;;
44704;SDS011;30431;48.520;9.046;2023-07-20T15:27:48;5.28;;;2.00;;
44704;SDS011;30431;48.520;9.046;2023-07-20T15:30:17;4.10;;;2.40;;
44704;SDS011;30431;48.520;9.046;2023-07-20T15:32:48;8.18;;;2.45;;
44704;SDS011;30431;48.520;9.046;2023-07-20T15:35:18;4.88;;;2.38;;
44704;SDS011;30431;48.520;9.046;2023-07-20T15:37:47;4.13;;;2.22;;
44704;SDS011;30431;48.520;9.046;2023-07-20T15:40:16;5.20;;;2.10;;
44704;SDS011;30431;48.520;9.046;2023-07-20T15:42:47;2.92;;;2.05;;
44704;SDS011;30431;48.520;9.046;2023-07-20T15:45:17;2.45;;;1.98;;
44704;SDS011;30431;48.520;9.046;2023-07-20T15:47:46;3.05;;;2.10;;
44704;SDS011;30431;48.520;9.046;2023-07-20T15:50:16;4.72;;;3.42;;
44704;SDS011;30431;48.520;9.046;2023-07-20T15:52:47;3.88;;;2.03;;
44704;SDS011;30431;48.520;9.046;2023-07-20T15:55:15;4.55;;;2.08;;
44704;SDS011;30431;48.520;9.046;2023-07-20T15:57:42;3.72;;;2.60;;
44704;SDS011;30431;48.520;9.046;2023-07-20T16:00:10;3.03;;;2.10;;
44704;SDS011;30431;48.520;9.046;2023-07-20T16:02:37;2.17;;;1.90;;
44704;SDS011;30431;48.520;9.046;2023-07-20T16:05:06;3.50;;;2.20;;
44704;SDS011;30431;48.520;9.046;2023-07-20T16:07:36;5.10;;;2.22;;
44704;SDS011;30431;48.520;9.046;2023-07-20T16:10:06;3.22;;;1.90;;
44704;SDS011;30431;48.520;9.046;2023-07-20T16:12:35;2.92;;;2.20;;
44704;SDS011;30431;48.520;9.046;2023-07-20T16:15:05;2.67;;;1.88;;
44704;SDS011;30431;48.520;9.046;2023-07-20T16:17:33;3.28;;;2.20;;
44704;SDS011;30431;48.520;9.046;2023-07-20T16:20:00;3.08;;;1.90;;
44704;SDS011;30431;48.520;9.046;2023-07-20T16:22:27;3.50;;;1.83;;
44704;SDS011;30431;48.520;9.046;2023-07-20T16:27:22;3.00;;;2.10;;
44704;SDS011;30431;48.520;9.046;2023-07-20T16:29:52;4.68;;;2.90;;
44704;SDS011;30431;48.520;9.046;2023-07-20T16:32:21;3.80;;;2.13;;
44704;SDS011;30431;48.520;9.046;2023-07-20T16:34:48;6.53;;;2.20;;
44704;SDS011;30431;48.520;9.046;2023-07-20T16:39:49;4.13;;;2.30;;
44704;SDS011;30431;48.520;9.046;2023-07-20T16:42:19;5.85;;;2.00;;
44704;SDS011;30431;48.520;9.046;2023-07-20T16:45:06;2.97;;;2.03;;
44704;SDS011;30431;48.520;9.046;2023-07-20T16:47:33;5.25;;;2.10;;